sensor_id;sensor_type;location;lat;lon;timestamp;P1;durP1;ratioP1;P2;durP2;ratioP2
55720;SDS011;41626;53.098;6.168;2022-10-26T00:00:46;26.20;;;12.85;;
55720;SDS011;41626;53.098;6.168;2022-10-26T00:03:12;24.67;;;14.15;;
55720;SDS011;41626;53.098;6.168;2022-10-26T00:05:38;22.90;;;13.95;;
55720;SDS011;41626;53.098;6.168;2022-10-26T00:08:04;23.73;;;13.13;;
55720;SDS011;41626;53.098;6.168;2022-10-26T00:10:32;22.63;;;12.50;;
55720;SDS011;41626;53.098;6.168;2022-10-26T00:12:58;33.28;;;15.95;;
55720;SDS011;41626;53.098;6.168;2022-10-26T00:15:24;23.30;;;14.20;;
55720;SDS011;41626;53.098;6.168;2022-10-26T00:17:50;23.05;;;12.57;;
55720;SDS011;41626;53.098;6.168;2022-10-26T00:20:15;24.27;;;13.50;;
55720;SDS011;41626;53.098;6.168;2022-10-26T00:22:41;26.40;;;11.98;;
55720;SDS011;41626;53.098;6.168;2022-10-26T00:25:07;19.30;;;11.77;;
55720;SDS011;41626;53.098;6.168;2022-10-26T00:27:33;19.10;;;12.52;;
55720;SDS011;41626;53.098;6.168;2022-10-26T00:29:59;17.88;;;11.02;;
55720;SDS011;41626;53.098;6.168;2022-10-26T00:32:25;17.27;;;11.18;;
55720;SDS011;41626;53.098;6.168;2022-10-26T00:34:51;24.45;;;11.48;;
55720;SDS011;41626;53.098;6.168;2022-10-26T00:37:17;17.75;;;10.82;;
55720;SDS011;41626;53.098;6.168;2022-10-26T00:39:43;16.13;;;11.18;;
55720;SDS011;41626;53.098;6.168;2022-10-26T00:42:12;25.00;;;11.68;;
55720;SDS011;41626;53.098;6.168;2022-10-26T00:47:12;18.83;;;10.32;;
55720;SDS011;41626;53.098;6.168;2022-10-26T00:49:46;21.00;;;11.25;;
55720;SDS011;41626;53.098;6.168;2022-10-26T00:52:14;20.30;;;10.77;;
55720;SDS011;41626;53.098;6.168;2022-10-26T00:54:42;16.70;;;11.13;;
55720;SDS011;41626;53.098;6.168;2022-10-26T00:57:09;22.92;;;12.15;;
55720;SDS011;41626;53.098;6.168;2022-10-26T00:59:37;18.00;;;10.10;;
55720;SDS011;41626;53.098;6.168;2022-10-26T01:02:03;22.25;;;11.20;;
55720;SDS011;41626;53.098;6.168;2022-10-26T01:04:29;18.27;;;9.90;;
55720;SDS011;41626;53.098;6.168;2022-10-26T01:06:54;17.17;;;10.57;;
55720;SDS011;41626;53.098;6.168;2022-10-26T01:09:20;17.58;;;10.07;;
55720;SDS011;41626;53.098;6.168;2022-10-26T01:11:47;13.57;;;10.40;;
55720;SDS011;41626;53.098;6.168;2022-10-26T01:14:13;19.23;;;11.48;;
55720;SDS011;41626;53.098;6.168;2022-10-26T01:22:20;18.40;;;10.88;;
55720;SDS011;41626;53.098;6.168;2022-10-26T01:25:07;20.15;;;10.70;;
55720;SDS011;41626;53.098;6.168;2022-10-26T01:27:55;17.60;;;10.57;;
55720;SDS011;41626;53.098;6.168;2022-10-26T01:30:35;18.00;;;9.05;;
55720;SDS011;41626;53.098;6.168;2022-10-26T01:41:30;22.88;;;11.20;;
55720;SDS011;41626;53.098;6.168;2022-10-26T01:44:03;16.65;;;9.40;;
55720;SDS011;41626;53.098;6.168;2022-10-26T01:46:34;15.95;;;10.30;;
55720;SDS011;41626;53.098;6.168;2022-10-26T01:49:07;18.98;;;11.05;;
55720;SDS011;41626;53.098;6.168;2022-10-26T01:51:35;18.83;;;8.88;;
55720;SDS011;41626;53.098;6.168;2022-10-26T01:54:02;16.98;;;10.75;;
55720;SDS011;41626;53.098;6.168;2022-10-26T01:56:28;18.50;;;11.80;;
55720;SDS011;41626;53.098;6.168;2022-10-26T02:04:56;14.43;;;10.32;;
55720;SDS011;41626;53.098;6.168;2022-10-26T02:15:47;16.80;;;12.63;;
55720;SDS011;41626;53.098;6.168;2022-10-26T02:18:29;21.58;;;14.10;;
55720;SDS011;41626;53.098;6.168;2022-10-26T02:21:08;19.92;;;13.98;;
55720;SDS011;41626;53.098;6.168;2022-10-26T02:23:38;28.45;;;18.20;;
55720;SDS011;41626;53.098;6.168;2022-10-26T02:26:07;24.15;;;17.80;;
55720;SDS011;41626;53.098;6.168;2022-10-26T02:28:36;24.20;;;17.10;;
55720;SDS011;41626;53.098;6.168;2022-10-26T02:31:06;28.40;;;18.70;;
55720;SDS011;41626;53.098;6.168;2022-10-26T02:33:35;32.30;;;16.75;;
55720;SDS011;41626;53.098;6.168;2022-10-26T02:36:04;28.65;;;18.60;;
55720;SDS011;41626;53.098;6.168;2022-10-26T02:38:33;30.40;;;20.15;;
55720;SDS011;41626;53.098;6.168;2022-10-26T02:41:01;26.35;;;18.02;;
55720;SDS011;41626;53.098;6.168;2022-10-26T02:43:28;25.05;;;18.77;;
55720;SDS011;41626;53.098;6.168;2022-10-26T02:45:58;25.70;;;17.10;;
55720;SDS011;41626;53.098;6.168;2022-10-26T02:48:30;24.75;;;18.52;;
55720;SDS011;41626;53.098;6.168;2022-10-26T02:53:29;26.05;;;16.52;;
55720;SDS011;41626;53.098;6.168;2022-10-26T02:55:59;27.80;;;18.30;;
55720;SDS011;41626;53.098;6.168;2022-10-26T02:58:32;24.50;;;16.77;;
55720;SDS011;41626;53.098;6.168;2022-10-26T03:01:04;35.03;;;18.85;;
55720;SDS011;41626;53.098;6.168;2022-10-26T03:03:30;25.65;;;18.33;;
55720;SDS011;41626;53.098;6.168;2022-10-26T03:05:56;27.23;;;18.85;;
55720;SDS011;41626;53.098;6.168;2022-10-26T03:08:22;21.92;;;16.63;;
55720;SDS011;41626;53.098;6.168;2022-10-26T03:10:48;25.77;;;17.38;;
55720;SDS011;41626;53.098;6.168;2022-10-26T03:13:13;25.00;;;16.27;;
55720;SDS011;41626;53.098;6.168;2022-10-26T03:15:39;24.73;;;16.50;;
55720;SDS011;41626;53.098;6.168;2022-10-26T03:18:05;23.67;;;16.73;;
55720;SDS011;41626;53.098;6.168;2022-10-26T03:20:31;23.98;;;16.88;;
55720;SDS011;41626;53.098;6.168;2022-10-26T03:22:57;25.95;;;15.70;;
55720;SDS011;41626;53.098;6.168;2022-10-26T03:25:23;26.58;;;16.50;;
55720;SDS011;41626;53.098;6.168;2022-10-26T03:27:58;23.30;;;17.52;;
55720;SDS011;41626;53.098;6.168;2022-10-26T03:30:25;21.77;;;15.07;;
55720;SDS011;41626;53.098;6.168;2022-10-26T03:32:52;17.27;;;14.15;;
55720;SDS011;41626;53.098;6.168;2022-10-26T03:35:18;22.67;;;16.42;;
55720;SDS011;41626;53.098;6.168;2022-10-26T03:37:44;28.30;;;16.27;;
55720;SDS011;41626;53.098;6.168;2022-10-26T03:40:09;22.58;;;16.38;;
55720;SDS011;41626;53.098;6.168;2022-10-26T03:42:36;19.83;;;15.98;;
55720;SDS011;41626;53.098;6.168;2022-10-26T03:45:01;19.58;;;16.38;;
55720;SDS011;41626;53.098;6.168;2022-10-26T03:47:28;22.25;;;16.63;;
55720;SDS011;41626;53.098;6.168;2022-10-26T03:49:53;23.50;;;15.52;;
55720;SDS011;41626;53.098;6.168;2022-10-26T03:52:19;27.20;;;15.27;;
55720;SDS011;41626;53.098;6.168;2022-10-26T03:54:45;22.35;;;16.52;;
55720;SDS011;41626;53.098;6.168;2022-10-26T03:57:10;21.45;;;16.45;;
55720;SDS011;41626;53.098;6.168;2022-10-26T03:59:36;23.67;;;15.00;;
55720;SDS011;41626;53.098;6.168;2022-10-26T04:02:01;35.67;;;16.98;;
55720;SDS011;41626;53.098;6.168;2022-10-26T04:04:27;32.20;;;15.82;;
55720;SDS011;41626;53.098;6.168;2022-10-26T04:06:53;28.85;;;16.80;;
55720;SDS011;41626;53.098;6.168;2022-10-26T04:09:18;29.48;;;15.85;;
55720;SDS011;41626;53.098;6.168;2022-10-26T04:11:44;22.23;;;15.70;;
55720;SDS011;41626;53.098;6.168;2022-10-26T04:14:10;23.85;;;16.38;;
55720;SDS011;41626;53.098;6.168;2022-10-26T04:16:35;25.58;;;16.00;;
55720;SDS011;41626;53.098;6.168;2022-10-26T04:19:01;22.65;;;15.68;;
55720;SDS011;41626;53.098;6.168;2022-10-26T04:21:27;27.05;;;18.00;;
55720;SDS011;41626;53.098;6.168;2022-10-26T04:23:53;25.30;;;16.52;;
55720;SDS011;41626;53.098;6.168;2022-10-26T04:26:18;25.00;;;15.55;;
55720;SDS011;41626;53.098;6.168;2022-10-26T04:28:44;23.77;;;15.57;;
55720;SDS011;41626;53.098;6.168;2022-10-26T04:31:09;23.25;;;17.25;;
55720;SDS011;41626;53.098;6.168;2022-10-26T04:33:35;23.48;;;16.30;;
55720;SDS011;41626;53.098;6.168;2022-10-26T04:36:01;21.17;;;16.60;;
55720;SDS011;41626;53.098;6.168;2022-10-26T04:38:26;23.73;;;16.27;;
55720;SDS011;41626;53.098;6.168;2022-10-26T04:40:52;24.83;;;16.77;;
55720;SDS011;41626;53.098;6.168;2022-10-26T04:43:17;26.02;;;18.27;;
55720;SDS011;41626;53.098;6.168;2022-10-26T04:45:43;23.90;;;17.77;;
55720;SDS011;41626;53.098;6.168;2022-10-26T04:48:09;28.50;;;17.13;;
55720;SDS011;41626;53.098;6.168;2022-10-26T04:50:36;20.50;;;16.08;;
55720;SDS011;41626;53.098;6.168;2022-10-26T04:53:06;27.77;;;16.90;;
55720;SDS011;41626;53.098;6.168;2022-10-26T04:55:32;37.92;;;19.08;;
55720;SDS011;41626;53.098;6.168;2022-10-26T04:57:58;28.02;;;16.17;;
55720;SDS011;41626;53.098;6.168;2022-10-26T05:00:24;29.63;;;18.70;;
55720;SDS011;41626;53.098;6.168;2022-10-26T05:02:50;21.77;;;15.98;;
55720;SDS011;41626;53.098;6.168;2022-10-26T05:05:16;20.65;;;17.63;;
55720;SDS011;41626;53.098;6.168;2022-10-26T05:07:42;42.05;;;18.17;;
55720;SDS011;41626;53.098;6.168;2022-10-26T05:10:08;22.80;;;15.70;;
55720;SDS011;41626;53.098;6.168;2022-10-26T05:12:34;22.88;;;15.80;;
55720;SDS011;41626;53.098;6.168;2022-10-26T05:14:59;20.73;;;15.65;;
55720;SDS011;41626;53.098;6.168;2022-10-26T05:17:25;27.17;;;17.52;;
55720;SDS011;41626;53.098;6.168;2022-10-26T05:19:51;22.02;;;16.13;;
55720;SDS011;41626;53.098;6.168;2022-10-26T05:22:22;24.52;;;15.85;;
55720;SDS011;41626;53.098;6.168;2022-10-26T05:24:49;18.70;;;15.80;;
55720;SDS011;41626;53.098;6.168;2022-10-26T05:27:14;24.73;;;17.25;;
55720;SDS011;41626;53.098;6.168;2022-10-26T05:29:40;25.05;;;15.93;;
55720;SDS011;41626;53.098;6.168;2022-10-26T05:32:06;26.30;;;16.48;;
55720;SDS011;41626;53.098;6.168;2022-10-26T05:34:31;21.08;;;15.90;;
55720;SDS011;41626;53.098;6.168;2022-10-26T05:36:57;26.15;;;16.13;;
55720;SDS011;41626;53.098;6.168;2022-10-26T05:39:22;19.00;;;15.32;;
55720;SDS011;41626;53.098;6.168;2022-10-26T05:41:48;23.20;;;17.05;;
55720;SDS011;41626;53.098;6.168;2022-10-26T05:44:13;23.45;;;16.48;;
55720;SDS011;41626;53.098;6.168;2022-10-26T05:46:39;25.00;;;17.23;;
55720;SDS011;41626;53.098;6.168;2022-10-26T05:49:05;24.90;;;18.17;;
55720;SDS011;41626;53.098;6.168;2022-10-26T05:51:34;24.55;;;15.57;;
55720;SDS011;41626;53.098;6.168;2022-10-26T05:54:01;27.55;;;18.45;;
55720;SDS011;41626;53.098;6.168;2022-10-26T05:56:34;18.70;;;15.63;;
55720;SDS011;41626;53.098;6.168;2022-10-26T05:59:09;21.30;;;16.55;;
55720;SDS011;41626;53.098;6.168;2022-10-26T06:06:43;21.20;;;16.05;;
55720;SDS011;41626;53.098;6.168;2022-10-26T06:09:10;29.35;;;16.73;;
55720;SDS011;41626;53.098;6.168;2022-10-26T06:11:37;18.58;;;15.45;;
55720;SDS011;41626;53.098;6.168;2022-10-26T06:14:03;24.63;;;15.57;;
55720;SDS011;41626;53.098;6.168;2022-10-26T06:22:31;18.92;;;13.75;;
55720;SDS011;41626;53.098;6.168;2022-10-26T06:26:02;25.50;;;15.07;;
55720;SDS011;41626;53.098;6.168;2022-10-26T06:30:53;25.90;;;16.48;;
55720;SDS011;41626;53.098;6.168;2022-10-26T06:33:19;24.88;;;16.05;;
55720;SDS011;41626;53.098;6.168;2022-10-26T06:36:10;17.25;;;14.55;;
55720;SDS011;41626;53.098;6.168;2022-10-26T06:38:32;19.67;;;13.63;;
55720;SDS011;41626;53.098;6.168;2022-10-26T06:40:59;21.10;;;14.73;;
55720;SDS011;41626;53.098;6.168;2022-10-26T06:43:26;19.30;;;13.65;;
55720;SDS011;41626;53.098;6.168;2022-10-26T06:46:42;18.63;;;14.32;;
55720;SDS011;41626;53.098;6.168;2022-10-26T06:48:49;17.88;;;14.90;;
55720;SDS011;41626;53.098;6.168;2022-10-26T06:51:19;18.52;;;12.73;;
55720;SDS011;41626;53.098;6.168;2022-10-26T06:53:50;15.68;;;12.70;;
55720;SDS011;41626;53.098;6.168;2022-10-26T06:56:21;18.05;;;13.65;;
55720;SDS011;41626;53.098;6.168;2022-10-26T06:58:48;18.02;;;12.98;;
55720;SDS011;41626;53.098;6.168;2022-10-26T07:01:16;19.92;;;13.10;;
55720;SDS011;41626;53.098;6.168;2022-10-26T07:03:42;19.35;;;13.85;;
55720;SDS011;41626;53.098;6.168;2022-10-26T07:06:08;21.30;;;14.00;;
55720;SDS011;41626;53.098;6.168;2022-10-26T07:08:34;19.80;;;13.18;;
55720;SDS011;41626;53.098;6.168;2022-10-26T07:11:00;19.08;;;11.68;;
55720;SDS011;41626;53.098;6.168;2022-10-26T07:13:25;59.75;;;15.23;;
55720;SDS011;41626;53.098;6.168;2022-10-26T07:15:51;17.65;;;12.68;;
55720;SDS011;41626;53.098;6.168;2022-10-26T07:18:16;18.05;;;12.88;;
55720;SDS011;41626;53.098;6.168;2022-10-26T07:20:42;20.63;;;12.57;;
55720;SDS011;41626;53.098;6.168;2022-10-26T07:23:08;16.67;;;11.00;;
55720;SDS011;41626;53.098;6.168;2022-10-26T07:25:37;15.93;;;10.73;;
55720;SDS011;41626;53.098;6.168;2022-10-26T07:28:08;14.15;;;10.43;;
55720;SDS011;41626;53.098;6.168;2022-10-26T07:30:35;21.42;;;10.48;;
55720;SDS011;41626;53.098;6.168;2022-10-26T07:33:05;13.38;;;9.88;;
55720;SDS011;41626;53.098;6.168;2022-10-26T07:35:33;13.90;;;9.25;;
55720;SDS011;41626;53.098;6.168;2022-10-26T07:37:59;21.27;;;11.13;;
55720;SDS011;41626;53.098;6.168;2022-10-26T07:40:25;12.60;;;9.38;;
55720;SDS011;41626;53.098;6.168;2022-10-26T07:42:51;25.63;;;9.55;;
55720;SDS011;41626;53.098;6.168;2022-10-26T07:45:17;14.02;;;9.73;;
55720;SDS011;41626;53.098;6.168;2022-10-26T07:47:43;13.02;;;9.50;;
55720;SDS011;41626;53.098;6.168;2022-10-26T07:50:10;12.30;;;9.23;;
55720;SDS011;41626;53.098;6.168;2022-10-26T07:52:36;11.55;;;8.82;;
55720;SDS011;41626;53.098;6.168;2022-10-26T07:55:03;11.18;;;8.75;;
55720;SDS011;41626;53.098;6.168;2022-10-26T07:57:29;15.05;;;8.50;;
55720;SDS011;41626;53.098;6.168;2022-10-26T07:59:55;8.85;;;7.68;;
55720;SDS011;41626;53.098;6.168;2022-10-26T08:02:21;15.57;;;8.30;;
55720;SDS011;41626;53.098;6.168;2022-10-26T08:04:47;14.32;;;9.98;;
55720;SDS011;41626;53.098;6.168;2022-10-26T08:07:14;18.00;;;9.05;;
55720;SDS011;41626;53.098;6.168;2022-10-26T08:09:39;10.07;;;7.63;;
55720;SDS011;41626;53.098;6.168;2022-10-26T08:12:05;15.48;;;8.18;;
55720;SDS011;41626;53.098;6.168;2022-10-26T08:14:30;14.98;;;7.57;;
55720;SDS011;41626;53.098;6.168;2022-10-26T08:16:56;6.78;;;5.65;;
55720;SDS011;41626;53.098;6.168;2022-10-26T08:19:22;9.32;;;7.65;;
55720;SDS011;41626;53.098;6.168;2022-10-26T08:21:47;13.57;;;7.55;;
55720;SDS011;41626;53.098;6.168;2022-10-26T08:24:13;11.63;;;7.97;;
55720;SDS011;41626;53.098;6.168;2022-10-26T08:26:39;11.15;;;7.63;;
55720;SDS011;41626;53.098;6.168;2022-10-26T08:29:05;14.88;;;8.40;;
55720;SDS011;41626;53.098;6.168;2022-10-26T08:31:31;9.43;;;6.22;;
55720;SDS011;41626;53.098;6.168;2022-10-26T08:33:57;11.85;;;6.43;;
55720;SDS011;41626;53.098;6.168;2022-10-26T08:36:23;13.82;;;7.50;;
55720;SDS011;41626;53.098;6.168;2022-10-26T08:38:51;9.63;;;6.88;;
55720;SDS011;41626;53.098;6.168;2022-10-26T08:41:17;14.43;;;6.22;;
55720;SDS011;41626;53.098;6.168;2022-10-26T08:43:53;9.77;;;5.90;;
55720;SDS011;41626;53.098;6.168;2022-10-26T08:46:45;10.10;;;5.90;;
55720;SDS011;41626;53.098;6.168;2022-10-26T08:49:28;12.27;;;5.80;;
55720;SDS011;41626;53.098;6.168;2022-10-26T08:51:57;10.50;;;5.28;;
55720;SDS011;41626;53.098;6.168;2022-10-26T08:54:33;12.30;;;6.43;;
55720;SDS011;41626;53.098;6.168;2022-10-26T08:57:13;9.65;;;5.10;;
55720;SDS011;41626;53.098;6.168;2022-10-26T08:59:45;6.45;;;5.10;;
55720;SDS011;41626;53.098;6.168;2022-10-26T09:02:17;14.52;;;5.75;;
55720;SDS011;41626;53.098;6.168;2022-10-26T09:04:44;9.90;;;4.63;;
55720;SDS011;41626;53.098;6.168;2022-10-26T09:13:02;8.68;;;5.13;;
55720;SDS011;41626;53.098;6.168;2022-10-26T09:15:53;12.75;;;4.57;;
55720;SDS011;41626;53.098;6.168;2022-10-26T09:29:31;12.27;;;5.50;;
55720;SDS011;41626;53.098;6.168;2022-10-26T09:32:03;8.80;;;5.55;;
55720;SDS011;41626;53.098;6.168;2022-10-26T09:34:42;12.60;;;7.50;;
55720;SDS011;41626;53.098;6.168;2022-10-26T09:37:15;6.10;;;4.78;;
55720;SDS011;41626;53.098;6.168;2022-10-26T09:39:54;8.68;;;4.60;;
55720;SDS011;41626;53.098;6.168;2022-10-26T09:42:22;7.63;;;4.03;;
55720;SDS011;41626;53.098;6.168;2022-10-26T09:44:57;7.70;;;5.13;;
55720;SDS011;41626;53.098;6.168;2022-10-26T09:47:39;12.93;;;5.50;;
55720;SDS011;41626;53.098;6.168;2022-10-26T09:50:20;7.45;;;5.03;;
55720;SDS011;41626;53.098;6.168;2022-10-26T09:52:56;13.75;;;5.47;;
55720;SDS011;41626;53.098;6.168;2022-10-26T09:55:22;10.05;;;5.03;;
55720;SDS011;41626;53.098;6.168;2022-10-26T09:57:49;8.18;;;4.95;;
55720;SDS011;41626;53.098;6.168;2022-10-26T10:00:18;12.55;;;5.70;;
55720;SDS011;41626;53.098;6.168;2022-10-26T10:02:50;13.50;;;5.05;;
55720;SDS011;41626;53.098;6.168;2022-10-26T10:13:22;5.05;;;3.67;;
55720;SDS011;41626;53.098;6.168;2022-10-26T10:15:50;7.30;;;5.13;;
55720;SDS011;41626;53.098;6.168;2022-10-26T10:18:21;11.48;;;5.30;;
55720;SDS011;41626;53.098;6.168;2022-10-26T10:20:51;7.63;;;3.78;;
55720;SDS011;41626;53.098;6.168;2022-10-26T10:23:26;8.60;;;4.07;;
55720;SDS011;41626;53.098;6.168;2022-10-26T10:28:25;10.30;;;4.50;;
55720;SDS011;41626;53.098;6.168;2022-10-26T10:30:56;7.18;;;3.28;;
55720;SDS011;41626;53.098;6.168;2022-10-26T10:36:00;5.45;;;3.63;;
55720;SDS011;41626;53.098;6.168;2022-10-26T10:38:27;6.93;;;3.08;;
55720;SDS011;41626;53.098;6.168;2022-10-26T10:40:55;8.07;;;2.80;;
55720;SDS011;41626;53.098;6.168;2022-10-26T10:43:23;6.60;;;3.47;;
55720;SDS011;41626;53.098;6.168;2022-10-26T10:45:50;7.13;;;3.78;;
55720;SDS011;41626;53.098;6.168;2022-10-26T10:48:19;4.72;;;3.53;;
55720;SDS011;41626;53.098;6.168;2022-10-26T10:50:59;8.38;;;2.88;;
55720;SDS011;41626;53.098;6.168;2022-10-26T10:53:36;7.20;;;4.30;;
55720;SDS011;41626;53.098;6.168;2022-10-26T10:58:49;8.02;;;2.92;;
55720;SDS011;41626;53.098;6.168;2022-10-26T11:01:24;7.20;;;2.38;;
55720;SDS011;41626;53.098;6.168;2022-10-26T11:06:44;7.18;;;3.50;;
55720;SDS011;41626;53.098;6.168;2022-10-26T11:09:14;8.30;;;3.58;;
55720;SDS011;41626;53.098;6.168;2022-10-26T11:11:44;5.93;;;2.55;;
55720;SDS011;41626;53.098;6.168;2022-10-26T11:14:15;5.28;;;2.15;;
55720;SDS011;41626;53.098;6.168;2022-10-26T11:16:48;4.18;;;2.50;;
55720;SDS011;41626;53.098;6.168;2022-10-26T11:19:34;8.77;;;3.38;;
55720;SDS011;41626;53.098;6.168;2022-10-26T11:22:09;5.53;;;2.13;;
55720;SDS011;41626;53.098;6.168;2022-10-26T11:24:49;9.45;;;3.10;;
55720;SDS011;41626;53.098;6.168;2022-10-26T11:27:28;6.75;;;3.05;;
55720;SDS011;41626;53.098;6.168;2022-10-26T11:30:05;5.40;;;2.42;;
55720;SDS011;41626;53.098;6.168;2022-10-26T11:32:42;6.25;;;3.00;;
55720;SDS011;41626;53.098;6.168;2022-10-26T11:35:31;5.18;;;2.00;;
55720;SDS011;41626;53.098;6.168;2022-10-26T11:40:44;3.88;;;2.45;;
55720;SDS011;41626;53.098;6.168;2022-10-26T11:43:45;9.60;;;2.72;;
55720;SDS011;41626;53.098;6.168;2022-10-26T11:46:39;6.35;;;2.55;;
55720;SDS011;41626;53.098;6.168;2022-10-26T11:51:42;7.22;;;3.80;;
55720;SDS011;41626;53.098;6.168;2022-10-26T11:57:01;10.00;;;2.92;;
55720;SDS011;41626;53.098;6.168;2022-10-26T11:59:30;11.13;;;2.72;;
55720;SDS011;41626;53.098;6.168;2022-10-26T12:02:01;10.52;;;3.40;;
55720;SDS011;41626;53.098;6.168;2022-10-26T12:04:46;7.35;;;2.83;;
55720;SDS011;41626;53.098;6.168;2022-10-26T12:07:28;8.90;;;3.42;;
55720;SDS011;41626;53.098;6.168;2022-10-26T12:09:55;4.80;;;3.13;;
55720;SDS011;41626;53.098;6.168;2022-10-26T12:12:37;9.38;;;3.42;;
55720;SDS011;41626;53.098;6.168;2022-10-26T12:15:17;12.10;;;4.45;;
55720;SDS011;41626;53.098;6.168;2022-10-26T12:17:50;9.43;;;3.28;;
55720;SDS011;41626;53.098;6.168;2022-10-26T12:22:54;15.63;;;4.90;;
55720;SDS011;41626;53.098;6.168;2022-10-26T12:25:21;14.77;;;4.32;;
55720;SDS011;41626;53.098;6.168;2022-10-26T12:32:55;9.65;;;3.97;;
55720;SDS011;41626;53.098;6.168;2022-10-26T12:38:25;8.50;;;3.70;;
55720;SDS011;41626;53.098;6.168;2022-10-26T12:40:47;10.05;;;4.35;;
55720;SDS011;41626;53.098;6.168;2022-10-26T12:43:35;9.80;;;4.38;;
55720;SDS011;41626;53.098;6.168;2022-10-26T12:46:44;10.50;;;5.05;;
55720;SDS011;41626;53.098;6.168;2022-10-26T12:48:50;9.88;;;4.88;;
55720;SDS011;41626;53.098;6.168;2022-10-26T12:51:39;9.35;;;5.60;;
55720;SDS011;41626;53.098;6.168;2022-10-26T13:07:18;12.05;;;5.22;;
55720;SDS011;41626;53.098;6.168;2022-10-26T13:09:51;10.90;;;5.55;;
55720;SDS011;41626;53.098;6.168;2022-10-26T13:12:26;15.40;;;5.80;;
55720;SDS011;41626;53.098;6.168;2022-10-26T13:15:01;11.02;;;5.22;;
55720;SDS011;41626;53.098;6.168;2022-10-26T13:17:30;11.65;;;6.03;;
55720;SDS011;41626;53.098;6.168;2022-10-26T13:19:59;11.85;;;6.13;;
55720;SDS011;41626;53.098;6.168;2022-10-26T13:22:26;8.85;;;4.88;;
55720;SDS011;41626;53.098;6.168;2022-10-26T13:25:00;13.38;;;5.82;;
55720;SDS011;41626;53.098;6.168;2022-10-26T13:30:40;11.95;;;5.88;;
55720;SDS011;41626;53.098;6.168;2022-10-26T13:33:18;35.28;;;9.10;;
55720;SDS011;41626;53.098;6.168;2022-10-26T13:35:48;11.77;;;5.10;;
55720;SDS011;41626;53.098;6.168;2022-10-26T13:38:17;10.25;;;5.22;;
55720;SDS011;41626;53.098;6.168;2022-10-26T13:40:47;9.10;;;5.50;;
55720;SDS011;41626;53.098;6.168;2022-10-26T13:43:15;11.27;;;5.55;;
55720;SDS011;41626;53.098;6.168;2022-10-26T13:50:54;7.50;;;3.75;;
55720;SDS011;41626;53.098;6.168;2022-10-26T13:59:04;9.15;;;4.43;;
55720;SDS011;41626;53.098;6.168;2022-10-26T14:01:33;4.88;;;2.60;;
55720;SDS011;41626;53.098;6.168;2022-10-26T14:04:13;8.75;;;3.58;;
55720;SDS011;41626;53.098;6.168;2022-10-26T14:06:49;8.60;;;4.10;;
55720;SDS011;41626;53.098;6.168;2022-10-26T14:09:16;6.07;;;2.55;;
55720;SDS011;41626;53.098;6.168;2022-10-26T14:11:54;8.38;;;3.75;;
55720;SDS011;41626;53.098;6.168;2022-10-26T14:14:31;7.88;;;3.20;;
55720;SDS011;41626;53.098;6.168;2022-10-26T14:17:02;6.60;;;3.78;;
55720;SDS011;41626;53.098;6.168;2022-10-26T14:19:38;16.25;;;5.03;;
55720;SDS011;41626;53.098;6.168;2022-10-26T14:22:05;11.93;;;3.80;;
55720;SDS011;41626;53.098;6.168;2022-10-26T14:24:32;7.15;;;4.10;;
55720;SDS011;41626;53.098;6.168;2022-10-26T14:26:59;12.10;;;4.45;;
55720;SDS011;41626;53.098;6.168;2022-10-26T14:29:26;9.45;;;4.90;;
55720;SDS011;41626;53.098;6.168;2022-10-26T14:31:56;8.32;;;4.63;;
55720;SDS011;41626;53.098;6.168;2022-10-26T14:34:21;12.82;;;5.60;;
55720;SDS011;41626;53.098;6.168;2022-10-26T14:41:45;8.25;;;4.60;;
55720;SDS011;41626;53.098;6.168;2022-10-26T14:44:16;12.05;;;5.68;;
55720;SDS011;41626;53.098;6.168;2022-10-26T14:46:44;8.13;;;5.47;;
55720;SDS011;41626;53.098;6.168;2022-10-26T14:49:20;9.43;;;5.50;;
55720;SDS011;41626;53.098;6.168;2022-10-26T14:51:48;8.00;;;6.20;;
55720;SDS011;41626;53.098;6.168;2022-10-26T14:54:21;16.77;;;7.30;;
55720;SDS011;41626;53.098;6.168;2022-10-26T14:56:49;17.63;;;7.45;;
55720;SDS011;41626;53.098;6.168;2022-10-26T14:59:26;9.82;;;7.72;;
55720;SDS011;41626;53.098;6.168;2022-10-26T15:04:30;14.00;;;8.55;;
55720;SDS011;41626;53.098;6.168;2022-10-26T15:09:37;12.10;;;8.00;;
55720;SDS011;41626;53.098;6.168;2022-10-26T15:12:06;11.05;;;8.80;;
55720;SDS011;41626;53.098;6.168;2022-10-26T15:14:45;11.43;;;9.02;;
55720;SDS011;41626;53.098;6.168;2022-10-26T15:17:34;15.68;;;10.10;;
55720;SDS011;41626;53.098;6.168;2022-10-26T15:20:03;11.93;;;10.75;;
55720;SDS011;41626;53.098;6.168;2022-10-26T15:22:30;12.38;;;9.90;;
55720;SDS011;41626;53.098;6.168;2022-10-26T15:24:57;14.55;;;10.13;;
55720;SDS011;41626;53.098;6.168;2022-10-26T15:27:29;18.67;;;10.65;;
55720;SDS011;41626;53.098;6.168;2022-10-26T15:30:10;10.85;;;9.38;;
55720;SDS011;41626;53.098;6.168;2022-10-26T15:32:44;11.53;;;10.13;;
55720;SDS011;41626;53.098;6.168;2022-10-26T15:37:56;13.13;;;10.20;;
55720;SDS011;41626;53.098;6.168;2022-10-26T15:40:23;13.52;;;10.57;;
55720;SDS011;41626;53.098;6.168;2022-10-26T15:42:51;19.10;;;11.90;;
55720;SDS011;41626;53.098;6.168;2022-10-26T15:45:25;15.10;;;10.05;;
55720;SDS011;41626;53.098;6.168;2022-10-26T15:48:17;10.98;;;9.88;;
55720;SDS011;41626;53.098;6.168;2022-10-26T15:50:49;13.50;;;11.00;;
55720;SDS011;41626;53.098;6.168;2022-10-26T15:53:17;12.65;;;9.02;;
55720;SDS011;41626;53.098;6.168;2022-10-26T15:55:53;10.27;;;8.90;;
55720;SDS011;41626;53.098;6.168;2022-10-26T15:58:21;19.23;;;10.65;;
55720;SDS011;41626;53.098;6.168;2022-10-26T16:00:47;11.95;;;8.90;;
55720;SDS011;41626;53.098;6.168;2022-10-26T16:03:14;12.20;;;8.63;;
55720;SDS011;41626;53.098;6.168;2022-10-26T16:05:43;10.57;;;7.82;;
55720;SDS011;41626;53.098;6.168;2022-10-26T16:08:13;12.02;;;8.35;;
55720;SDS011;41626;53.098;6.168;2022-10-26T16:10:40;16.05;;;8.60;;
55720;SDS011;41626;53.098;6.168;2022-10-26T16:13:13;15.07;;;8.65;;
55720;SDS011;41626;53.098;6.168;2022-10-26T16:15:39;12.23;;;7.72;;
55720;SDS011;41626;53.098;6.168;2022-10-26T16:18:05;14.40;;;8.13;;
55720;SDS011;41626;53.098;6.168;2022-10-26T16:20:31;8.23;;;7.30;;
55720;SDS011;41626;53.098;6.168;2022-10-26T16:22:56;9.68;;;7.95;;
55720;SDS011;41626;53.098;6.168;2022-10-26T16:25:25;12.95;;;7.72;;
55720;SDS011;41626;53.098;6.168;2022-10-26T16:27:52;13.00;;;7.68;;
55720;SDS011;41626;53.098;6.168;2022-10-26T16:30:19;12.95;;;7.38;;
55720;SDS011;41626;53.098;6.168;2022-10-26T16:32:46;12.63;;;7.75;;
55720;SDS011;41626;53.098;6.168;2022-10-26T16:35:11;10.27;;;6.75;;
55720;SDS011;41626;53.098;6.168;2022-10-26T16:37:39;10.13;;;8.02;;
55720;SDS011;41626;53.098;6.168;2022-10-26T16:40:05;18.23;;;8.00;;
55720;SDS011;41626;53.098;6.168;2022-10-26T16:42:31;11.52;;;5.85;;
55720;SDS011;41626;53.098;6.168;2022-10-26T16:44:57;13.90;;;7.22;;
55720;SDS011;41626;53.098;6.168;2022-10-26T16:47:23;8.23;;;5.85;;
55720;SDS011;41626;53.098;6.168;2022-10-26T16:49:49;11.05;;;6.07;;
55720;SDS011;41626;53.098;6.168;2022-10-26T16:52:15;21.40;;;7.78;;
55720;SDS011;41626;53.098;6.168;2022-10-26T16:54:41;11.23;;;6.70;;
55720;SDS011;41626;53.098;6.168;2022-10-26T16:57:07;11.82;;;6.70;;
55720;SDS011;41626;53.098;6.168;2022-10-26T16:59:32;11.93;;;7.28;;
55720;SDS011;41626;53.098;6.168;2022-10-26T17:01:58;8.00;;;6.45;;
55720;SDS011;41626;53.098;6.168;2022-10-26T17:04:24;15.07;;;7.38;;
55720;SDS011;41626;53.098;6.168;2022-10-26T17:06:50;12.63;;;7.53;;